Time;durP1;ratioP1;P1;durP2;ratioP2;P2;SDS_P1;SDS_P2;PMS_P1;PMS_P2;Temp;Humidity;BMP_temperature;BMP_pressure;BME280_temperature;BME280_humidity;BME280_pressure;Samples;Min_cycle;Max_cycle;Signal;HPM_P1;HPM_P2
2022/01/28 00:02:59;;;;;;;1.60;1.50;;;21.90;65.00;;;;;;6199909;28;89113;-69
2022/01/28 00:06:01;;;;;;;1.73;1.63;;;21.90;65.00;;;;;;6222918;28;88984;-68
2022/01/28 00:09:04;;;;;;;1.50;1.40;;;21.90;65.00;;;;;;6201846;28;89578;-68
2022/01/28 00:12:08;;;;;;;1.50;1.40;;;21.90;65.00;;;;;;6205513;28;89380;-68
2022/01/28 00:15:19;;;;;;;1.60;1.50;;;21.80;65.00;;;;;;6210861;28;88370;-68
2022/01/28 00:18:52;;;;;;;1.48;1.38;;;21.80;65.00;;;;;;6210896;28;89043;-68
2022/01/28 00:38:31;;;;;;;1.30;1.20;;;21.70;65.10;;;;;;6210441;28;87489;-68
2022/01/28 00:41:34;;;;;;;1.23;1.13;;;21.70;65.10;;;;;;6203952;28;89275;-68
2022/01/28 00:44:36;;;;;;;1.20;1.10;;;21.70;65.10;;;;;;6203543;28;89486;-68
2022/01/28 00:47:38;;;;;;;1.20;1.10;;;21.70;65.20;;;;;;6208547;28;88318;-68
2022/01/28 00:50:42;;;;;;;1.20;1.10;;;21.70;65.10;;;;;;6210440;28;89060;-68
2022/01/28 00:53:44;;;;;;;1.30;1.20;;;21.60;65.10;;;;;;6208748;28;88047;-67
2022/01/28 00:56:47;;;;;;;1.20;1.10;;;21.60;65.10;;;;;;6194624;28;90012;-68
2022/01/28 00:59:49;;;;;;;1.20;1.10;;;21.60;65.00;;;;;;6211115;28;89102;-68
2022/01/28 01:02:51;;;;;;;1.20;1.10;;;21.60;65.00;;;;;;6200184;28;87966;-68
2022/01/28 01:05:53;;;;;;;0.90;0.90;;;21.60;65.00;;;;;;6207868;28;89061;-68
2022/01/28 01:08:56;;;;;;;1.40;1.30;;;21.60;65.00;;;;;;6208068;28;89031;-68
2022/01/28 01:12:00;;;;;;;1.27;1.17;;;21.60;65.00;;;;;;6207572;28;89007;-68
2022/01/28 01:15:02;;;;;;;1.17;1.08;;;21.60;65.00;;;;;;6209186;28;89383;-68
2022/01/28 01:18:10;;;;;;;1.20;1.10;;;21.60;65.00;;;;;;6210764;28;88328;-67
2022/01/28 01:21:18;;;;;;;1.23;1.13;;;21.50;65.00;;;;;;6207109;28;89371;-68
2022/01/28 01:24:23;;;;;;;1.25;1.10;;;21.50;65.00;;;;;;6202003;28;89133;-68
2022/01/28 01:27:28;;;;;;;1.17;1.08;;;21.50;64.90;;;;;;6204057;28;90715;-68
2022/01/28 01:30:34;;;;;;;1.25;1.15;;;21.50;65.00;;;;;;6197516;28;88831;-68
2022/01/28 01:33:40;;;;;;;1.20;1.10;;;21.50;65.00;;;;;;6209533;28;89353;-68
2022/01/28 01:36:43;;;;;;;1.30;1.20;;;21.50;65.00;;;;;;6184775;28;89228;-69
2022/01/28 01:39:45;;;;;;;1.75;1.20;;;21.50;65.00;;;;;;6206986;28;89225;-69
2022/01/28 01:42:53;;;;;;;1.10;1.00;;;21.50;65.00;;;;;;6213260;28;87966;-67
2022/01/28 01:46:11;;;;;;;1.40;1.30;;;21.50;65.00;;;;;;6206958;28;89005;-68
2022/01/28 01:52:33;;;;;;;1.40;1.30;;;21.40;65.00;;;;;;6209035;28;87360;-69
2022/01/28 01:55:35;;;;;;;1.20;1.10;;;21.40;65.00;;;;;;6209305;28;87968;-68
2022/01/28 01:58:41;;;;;;;1.20;1.10;;;21.40;65.00;;;;;;6207367;28;90031;-67
2022/01/28 02:01:43;;;;;;;1.40;1.30;;;21.40;65.00;;;;;;6203600;28;89574;-68
2022/01/28 02:04:45;;;;;;;1.45;1.35;;;21.40;65.00;;;;;;6201654;28;88938;-68
2022/01/28 02:07:48;;;;;;;1.42;1.30;;;21.40;65.00;;;;;;6207982;28;89073;-68
2022/01/28 02:10:50;;;;;;;1.55;1.45;;;21.40;65.00;;;;;;6209384;28;89120;-68
2022/01/28 02:13:54;;;;;;;1.70;1.60;;;21.40;65.00;;;;;;6195194;28;90560;-68
2022/01/28 02:16:56;;;;;;;1.60;1.50;;;21.40;65.10;;;;;;6196335;28;89492;-68
2022/01/28 02:19:58;;;;;;;1.67;1.58;;;21.30;65.00;;;;;;6207358;28;88331;-68
2022/01/28 02:23:02;;;;;;;1.52;1.42;;;21.30;65.10;;;;;;6209765;28;88976;-68
2022/01/28 02:26:06;;;;;;;1.60;1.50;;;21.40;65.20;;;;;;6194442;28;89145;-68
2022/01/28 02:29:12;;;;;;;1.80;1.70;;;21.30;65.10;;;;;;6195279;28;90051;-68
2022/01/28 02:32:14;;;;;;;1.85;1.70;;;21.30;65.10;;;;;;6208158;28;87851;-68
2022/01/28 02:35:16;;;;;;;1.70;1.60;;;21.30;65.10;;;;;;6208037;28;87965;-67
2022/01/28 02:38:22;;;;;;;1.80;1.70;;;21.30;65.00;;;;;;6206474;28;89230;-68
2022/01/28 02:41:27;;;;;;;2.05;1.85;;;21.30;65.00;;;;;;6207024;28;89968;-68
2022/01/28 02:44:44;;;;;;;2.10;1.90;;;21.30;65.00;;;;;;6208111;28;89066;-68
2022/01/28 02:47:50;;;;;;;1.83;1.73;;;21.30;65.00;;;;;;6201511;28;88969;-68
2022/01/28 02:51:02;;;;;;;1.85;1.75;;;21.30;65.00;;;;;;6199500;28;88334;-68
2022/01/28 02:54:14;;;;;;;2.20;2.00;;;21.30;65.00;;;;;;6195295;28;88973;-69
2022/01/28 02:57:22;;;;;;;2.10;1.90;;;21.30;65.00;;;;;;6206044;28;88865;-68
2022/01/28 03:00:24;;;;;;;2.10;1.75;;;21.30;65.10;;;;;;6202694;28;89922;-68
2022/01/28 03:03:45;;;;;;;2.05;1.85;;;21.20;65.00;;;;;;6195910;28;89155;-68
2022/01/28 03:06:48;;;;;;;2.00;1.83;;;21.20;65.00;;;;;;6208934;28;88912;-68
2022/01/28 03:10:14;;;;;;;2.30;2.10;;;21.20;65.00;;;;;;6207993;28;89387;-69
2022/01/28 03:13:46;;;;;;;2.20;2.00;;;21.20;65.00;;;;;;6205345;28;88142;-68
2022/01/28 03:17:04;;;;;;;2.15;1.95;;;21.20;65.00;;;;;;6207443;28;88551;-68
2022/01/28 03:20:30;;;;;;;1.80;1.70;;;21.20;65.00;;;;;;6199833;28;88979;-69
2022/01/28 03:23:36;;;;;;;1.90;1.80;;;21.10;64.90;;;;;;6203888;28;87823;-68
2022/01/28 03:26:40;;;;;;;2.13;1.92;;;21.20;65.00;;;;;;6206382;28;89413;-68
2022/01/28 03:29:42;;;;;;;1.90;1.80;;;21.10;65.00;;;;;;6207367;28;89078;-68
2022/01/28 03:32:44;;;;;;;2.20;2.00;;;21.10;65.00;;;;;;6206654;28;90027;-69
2022/01/28 03:35:46;;;;;;;2.22;2.03;;;21.10;65.00;;;;;;6187376;28;89478;-68
2022/01/28 03:38:49;;;;;;;2.28;1.92;;;21.10;64.90;;;;;;6194329;28;89415;-68
2022/01/28 03:41:52;;;;;;;2.08;1.88;;;21.10;65.00;;;;;;6205024;28;89091;-69
2022/01/28 03:44:54;;;;;;;2.00;1.90;;;21.10;65.00;;;;;;6207022;28;89243;-68
2022/01/28 03:47:56;;;;;;;1.95;1.83;;;21.10;65.00;;;;;;6199193;28;89061;-69
2022/01/28 03:50:58;;;;;;;2.17;1.98;;;21.10;65.80;;;;;;6205682;28;89402;-68
2022/01/28 03:54:00;;;;;;;2.10;1.88;;;21.10;64.90;;;;;;6207881;28;88820;-68
2022/01/28 03:57:04;;;;;;;2.20;2.00;;;21.10;64.90;;;;;;6189158;28;89214;-69
2022/01/28 04:00:07;;;;;;;2.17;1.92;;;21.10;65.00;;;;;;6206736;28;89099;-68
2022/01/28 04:03:23;;;;;;;2.00;1.80;;;21.10;65.10;;;;;;6192583;28;90104;-69
2022/01/28 04:13:02;;;;;;;1.92;1.83;;;21.00;65.00;;;;;;6194308;28;87328;-68
2022/01/28 04:16:27;;;;;;;2.20;2.00;;;21.00;64.80;;;;;;6195852;28;89071;-68
2022/01/28 04:19:28;;;;;;;1.95;1.85;;;21.00;64.70;;;;;;6200120;28;88654;-68
2022/01/28 04:22:30;;;;;;;1.88;1.75;;;21.00;64.70;;;;;;6207271;28;89051;-68
2022/01/28 04:25:32;;;;;;;1.90;1.80;;;21.00;64.60;;;;;;6206334;28;87714;-68
2022/01/28 04:28:35;;;;;;;1.88;1.77;;;21.00;64.60;;;;;;6192454;28;89238;-68
2022/01/28 04:31:41;;;;;;;1.80;1.70;;;21.10;64.60;;;;;;6197790;28;89104;-68
2022/01/28 04:34:43;;;;;;;1.80;1.70;;;21.10;64.60;;;;;;6190337;28;90360;-68
2022/01/28 04:37:55;;;;;;;1.92;1.80;;;21.10;64.50;;;;;;6198774;28;89426;-68
2022/01/28 04:41:06;;;;;;;1.90;1.70;;;21.10;64.40;;;;;;6187116;28;89080;-68
2022/01/28 04:44:16;;;;;;;2.05;1.95;;;21.10;64.40;;;;;;6185043;28;89076;-67
2022/01/28 04:47:24;;;;;;;2.20;2.00;;;21.20;64.30;;;;;;6198236;28;89159;-67
2022/01/28 04:50:35;;;;;;;1.70;1.60;;;21.10;64.10;;;;;;6209542;28;89206;-67
2022/01/28 04:57:01;;;;;;;1.73;1.63;;;21.20;64.10;;;;;;6199674;28;87752;-68
2022/01/28 05:00:14;;;;;;;1.70;1.60;;;21.20;63.90;;;;;;6192021;28;89031;-68
2022/01/28 05:07:24;;;;;;;1.83;1.73;;;21.20;63.80;;;;;;6205030;28;89596;-68
2022/01/28 05:10:52;;;;;;;1.77;1.67;;;21.30;63.80;;;;;;6198177;28;89150;-68
2022/01/28 05:14:19;;;;;;;1.92;1.73;;;21.30;63.80;;;;;;6206826;28;89465;-68
2022/01/28 05:24:35;;;;;;;1.65;1.55;;;21.40;63.60;;;;;;6208766;28;87316;-68
2022/01/28 05:27:42;;;;;;;1.70;1.60;;;21.40;63.60;;;;;;6208373;28;88664;-67
2022/01/28 05:30:45;;;;;;;2.10;1.90;;;21.50;63.50;;;;;;6205060;28;88381;-67
2022/01/28 05:33:49;;;;;;;2.00;1.80;;;21.50;63.50;;;;;;6208053;28;89090;-68
2022/01/28 05:36:51;;;;;;;1.70;1.60;;;21.50;63.30;;;;;;6208005;28;89136;-67
2022/01/28 05:39:53;;;;;;;2.00;1.80;;;21.50;63.30;;;;;;6206188;28;90540;-68
2022/01/28 05:42:55;;;;;;;1.90;1.73;;;21.60;63.30;;;;;;6208164;28;89144;-68
2022/01/28 05:45:57;;;;;;;1.80;1.70;;;21.60;63.20;;;;;;6206461;28;88994;-68
2022/01/28 05:49:00;;;;;;;2.10;1.90;;;21.70;63.20;;;;;;6204886;28;89462;-68
2022/01/28 05:52:03;;;;;;;2.08;1.90;;;21.70;63.20;;;;;;6205099;28;89424;-67
2022/01/28 05:55:06;;;;;;;1.80;1.70;;;21.70;63.20;;;;;;6190216;28;87966;-68
2022/01/28 05:58:08;;;;;;;2.00;1.80;;;21.70;63.20;;;;;;6196439;28;89084;-68
2022/01/28 06:01:10;;;;;;;2.10;1.90;;;21.70;63.20;;;;;;6492795;22;88576;-57
2022/01/28 06:04:15;;;;;;;2.00;1.80;;;21.70;63.20;;;;;;6158634;28;89117;-57
2022/01/28 06:07:19;;;;;;;2.00;1.80;;;21.70;63.10;;;;;;6158515;28;89538;-58
2022/01/28 06:10:21;;;;;;;2.05;1.85;;;21.70;63.10;;;;;;6153213;28;89750;-57
2022/01/28 06:13:23;;;;;;;1.95;1.77;;;21.80;63.10;;;;;;6159321;28;88323;-57
2022/01/28 06:16:26;;;;;;;2.13;1.80;;;21.80;63.10;;;;;;6145474;28;89150;-57
2022/01/28 06:19:29;;;;;;;1.90;1.80;;;21.80;63.10;;;;;;6162997;28;89035;-58
2022/01/28 06:22:31;;;;;;;2.10;1.90;;;21.80;63.10;;;;;;6140567;28;88312;-60
2022/01/28 06:25:33;;;;;;;1.90;1.75;;;21.80;63.00;;;;;;6152659;28;87961;-57
2022/01/28 06:28:35;;;;;;;1.73;1.63;;;21.80;63.00;;;;;;6160817;28;88963;-57
2022/01/28 06:34:58;;;;;;;1.88;1.70;;;21.80;63.00;;;;;;6160430;28;87071;-57
2022/01/28 06:38:00;;;;;;;1.80;1.70;;;21.80;62.90;;;;;;6159757;28;89448;-57
2022/01/28 06:41:02;;;;;;;1.83;1.70;;;21.90;63.00;;;;;;6157759;28;90048;-57
2022/01/28 06:44:04;;;;;;;1.63;1.52;;;21.90;63.00;;;;;;6146670;28;89033;-57
2022/01/28 06:47:10;;;;;;;2.30;1.65;;;21.90;62.90;;;;;;6158774;28;88966;-58
2022/01/28 06:50:14;;;;;;;1.55;1.45;;;21.90;62.80;;;;;;6158747;28;88442;-57
2022/01/28 06:53:16;;;;;;;1.70;1.60;;;21.90;62.80;;;;;;6151613;28;89105;-57
2022/01/28 06:56:18;;;;;;;1.98;1.77;;;22.00;62.80;;;;;;6135122;28;89158;-57
2022/01/28 06:59:20;;;;;;;1.90;1.60;;;21.90;62.70;;;;;;6154523;28;88247;-57
2022/01/28 07:02:22;;;;;;;1.58;1.48;;;22.00;62.80;;;;;;6150855;28;88289;-57
2022/01/28 07:05:26;;;;;;;1.75;1.65;;;22.00;62.80;;;;;;6153748;28;89626;-57
2022/01/28 07:08:28;;;;;;;1.90;1.70;;;22.00;62.70;;;;;;6154287;28;89100;-57
2022/01/28 07:11:30;;;;;;;1.70;1.60;;;22.00;62.80;;;;;;6153195;28;90383;-57
2022/01/28 07:14:32;;;;;;;1.90;1.70;;;22.00;62.70;;;;;;6136471;28;89181;-56
2022/01/28 07:17:34;;;;;;;1.75;1.45;;;22.00;63.50;;;;;;6148800;28;89037;-56
2022/01/28 07:20:38;;;;;;;1.60;1.50;;;22.00;62.60;;;;;;6147523;28;90039;-57
2022/01/28 07:23:40;;;;;;;1.88;1.50;;;22.10;62.70;;;;;;6159877;28;89082;-56
2022/01/28 07:26:42;;;;;;;2.63;1.58;;;22.10;62.60;;;;;;6159232;28;89084;-57
2022/01/28 07:29:44;;;;;;;1.55;1.40;;;22.10;62.70;;;;;;6144880;28;89144;-57
2022/01/28 07:32:49;;;;;;;1.75;1.65;;;22.10;62.60;;;;;;6157701;28;88307;-57
2022/01/28 07:35:52;;;;;;;1.65;1.55;;;22.10;62.50;;;;;;6144594;28;87965;-57
2022/01/28 07:38:54;;;;;;;2.25;1.60;;;22.10;62.50;;;;;;6147790;28;89381;-57
2022/01/28 07:41:56;;;;;;;1.58;1.48;;;22.10;62.50;;;;;;6158960;28;90008;-57
2022/01/28 07:44:58;;;;;;;1.50;1.40;;;22.10;62.40;;;;;;6158362;28;89004;-56
2022/01/28 07:48:00;;;;;;;1.60;1.38;;;22.10;62.50;;;;;;6155941;28;87889;-57
2022/01/28 07:51:04;;;;;;;1.67;1.40;;;22.10;62.40;;;;;;6159257;28;89185;-57
2022/01/28 07:54:06;;;;;;;1.60;1.40;;;22.20;62.40;;;;;;6151587;28;89154;-57
2022/01/28 07:57:08;;;;;;;1.50;1.40;;;22.10;62.40;;;;;;6151191;28;89271;-57
2022/01/28 08:00:12;;;;;;;1.48;1.38;;;22.20;62.40;;;;;;6144032;28;89247;-57
2022/01/28 08:03:14;;;;;;;1.52;1.42;;;22.20;62.30;;;;;;6145889;28;88358;-57
2022/01/28 08:06:18;;;;;;;1.65;1.45;;;22.20;62.30;;;;;;6157767;28;89142;-57
2022/01/28 08:09:20;;;;;;;1.50;1.40;;;22.20;62.30;;;;;;6152996;28;88874;-57
2022/01/28 08:12:22;;;;;;;1.60;1.50;;;22.20;62.30;;;;;;6147686;28;89993;-57
2022/01/28 08:15:24;;;;;;;1.60;1.50;;;22.20;62.30;;;;;;6143539;28;87939;-56
2022/01/28 08:18:26;;;;;;;1.58;1.48;;;22.20;62.30;;;;;;6149702;28;89162;-57
2022/01/28 08:21:29;;;;;;;1.52;1.42;;;22.20;62.20;;;;;;6158758;28;89077;-57
2022/01/28 08:24:31;;;;;;;1.67;1.40;;;22.30;62.30;;;;;;6162964;28;89222;-57
2022/01/28 08:27:33;;;;;;;1.73;1.42;;;22.30;62.30;;;;;;6163110;28;89065;-57
2022/01/28 08:30:38;;;;;;;1.70;1.40;;;22.20;62.10;;;;;;6150782;28;89047;-60
2022/01/28 08:33:40;;;;;;;1.60;1.50;;;22.30;62.20;;;;;;6138525;28;88319;-56
2022/01/28 08:36:44;;;;;;;1.40;1.30;;;22.30;62.20;;;;;;6156933;28;89091;-57
2022/01/28 08:39:46;;;;;;;1.45;1.35;;;22.30;62.20;;;;;;6160703;28;89613;-57
2022/01/28 08:42:48;;;;;;;1.60;1.33;;;22.20;62.00;;;;;;6148030;28;90418;-58
2022/01/28 08:45:50;;;;;;;1.25;1.15;;;22.30;62.00;;;;;;6159886;28;89476;-57
2022/01/28 08:48:52;;;;;;;1.52;1.30;;;22.30;62.00;;;;;;6161080;28;89406;-57
2022/01/28 08:51:55;;;;;;;1.65;1.40;;;22.30;61.90;;;;;;6160496;28;87975;-57
2022/01/28 08:54:57;;;;;;;1.40;1.30;;;22.40;62.00;;;;;;6158176;28;89127;-58
2022/01/28 08:57:59;;;;;;;1.30;1.20;;;22.40;62.00;;;;;;6148305;28;89445;-61
2022/01/28 09:01:02;;;;;;;1.63;1.40;;;22.40;61.90;;;;;;6136577;28;89200;-59
2022/01/28 09:04:04;;;;;;;1.58;1.30;;;22.40;61.90;;;;;;6158112;28;88518;-59
2022/01/28 09:07:08;;;;;;;1.50;1.20;;;22.40;61.80;;;;;;6159622;28;89407;-59
2022/01/28 09:10:17;;;;;;;1.60;1.40;;;22.40;61.80;;;;;;6151352;28;88054;-59
2022/01/28 09:13:24;;;;;;;1.30;1.20;;;22.40;61.80;;;;;;6159309;28;90046;-59
2022/01/28 09:16:26;;;;;;;1.67;1.40;;;22.40;61.80;;;;;;6146522;28;88820;-59
2022/01/28 09:19:48;;;;;;;1.40;1.30;;;22.40;61.80;;;;;;6148138;28;89118;-59
2022/01/28 09:22:51;;;;;;;1.23;1.13;;;22.40;62.60;;;;;;6136419;28;88121;-59
2022/01/28 09:25:54;;;;;;;1.70;1.30;;;22.40;61.70;;;;;;6161723;28;88274;-59
2022/01/28 09:28:56;;;;;;;1.45;1.35;;;22.50;61.70;;;;;;6158797;28;88293;-58
2022/01/28 09:31:59;;;;;;;1.40;1.30;;;22.40;61.70;;;;;;6160399;28;89243;-59
2022/01/28 09:35:02;;;;;;;2.33;1.30;;;22.40;61.60;;;;;;6160319;28;88540;-59
2022/01/28 09:38:06;;;;;;;1.48;1.20;;;22.40;61.70;;;;;;6146700;28;89081;-59
2022/01/28 09:41:09;;;;;;;1.40;1.20;;;22.40;61.60;;;;;;6147028;28;89106;-59
2022/01/28 09:44:13;;;;;;;1.45;1.20;;;22.40;61.60;;;;;;6147355;28;90505;-59
2022/01/28 09:47:16;;;;;;;1.33;1.20;;;22.50;61.70;;;;;;6142314;28;88009;-59
2022/01/28 09:50:21;;;;;;;1.30;1.20;;;22.50;61.70;;;;;;6152334;28;88963;-59
2022/01/28 09:53:24;;;;;;;1.38;1.27;;;22.50;61.60;;;;;;6159578;28;89031;-59
2022/01/28 09:56:26;;;;;;;1.17;1.08;;;22.50;61.60;;;;;;6160186;28;89169;-59
2022/01/28 09:59:28;;;;;;;1.42;1.10;;;22.50;61.60;;;;;;6161136;28;89086;-59
2022/01/28 10:02:48;;;;;;;1.65;1.13;;;22.50;61.60;;;;;;6159907;28;89591;-59
2022/01/28 10:05:51;;;;;;;1.75;1.13;;;22.50;61.60;;;;;;6147910;28;87214;-59
2022/01/28 10:08:56;;;;;;;1.30;1.20;;;22.50;61.50;;;;;;6159258;28;89209;-59
2022/01/28 10:12:17;;;;;;;1.33;1.23;;;22.50;61.50;;;;;;6146692;28;89240;-59
2022/01/28 10:15:28;;;;;;;1.20;1.10;;;22.50;61.50;;;;;;6157511;28;90360;-59
2022/01/28 10:18:41;;;;;;;1.52;1.27;;;22.60;61.50;;;;;;6154044;28;89290;-60
2022/01/28 10:21:46;;;;;;;1.15;1.00;;;22.60;61.60;;;;;;6145665;28;89120;-59
2022/01/28 10:24:49;;;;;;;2.13;1.30;;;22.60;61.60;;;;;;6156139;28;89194;-59
2022/01/28 10:27:58;;;;;;;1.30;1.20;;;22.60;61.60;;;;;;6148800;28;89327;-59
2022/01/28 10:31:04;;;;;;;1.30;1.20;;;22.60;61.60;;;;;;6147073;28;89095;-59
2022/01/28 10:34:16;;;;;;;1.20;1.10;;;22.60;61.70;;;;;;6147702;28;87986;-59
2022/01/28 10:37:20;;;;;;;1.10;1.00;;;22.60;61.60;;;;;;6158466;28;88913;-59
2022/01/28 10:40:23;;;;;;;1.20;1.10;;;22.60;61.60;;;;;;6147298;28;88973;-59
2022/01/28 10:43:26;;;;;;;1.20;1.10;;;22.60;61.60;;;;;;6157856;28;89458;-58
2022/01/28 10:46:34;;;;;;;1.30;1.20;;;22.60;61.70;;;;;;6149119;28;89905;-59
2022/01/28 10:49:36;;;;;;;1.13;1.02;;;22.60;61.70;;;;;;6156522;28;89104;-59
2022/01/28 10:52:38;;;;;;;1.13;1.02;;;22.60;61.70;;;;;;6157545;28;89157;-59
2022/01/28 10:55:45;;;;;;;1.30;1.20;;;22.60;61.70;;;;;;6155830;28;89111;-59
2022/01/28 10:58:47;;;;;;;1.02;0.98;;;22.60;61.60;;;;;;6145453;28;89304;-59
2022/01/28 11:01:49;;;;;;;1.10;1.00;;;22.60;61.60;;;;;;6157291;28;89146;-59
2022/01/28 11:04:53;;;;;;;1.00;0.90;;;22.60;61.80;;;;;;6159835;28;89170;-59
2022/01/28 11:07:55;;;;;;;1.40;1.17;;;22.60;61.60;;;;;;6157764;28;88381;-59
2022/01/28 11:10:59;;;;;;;1.00;0.98;;;22.60;61.60;;;;;;6151216;28;89383;-59
2022/01/28 11:14:02;;;;;;;1.13;1.00;;;22.60;61.60;;;;;;6153215;28;88033;-59
2022/01/28 11:17:04;;;;;;;1.15;1.05;;;22.60;61.60;;;;;;6157538;28;90016;-59
2022/01/28 11:20:08;;;;;;;1.40;1.08;;;22.60;61.60;;;;;;6159204;28;88235;-59
2022/01/28 11:23:19;;;;;;;1.20;1.10;;;22.60;61.50;;;;;;6144118;28;88198;-59
2022/01/28 11:26:27;;;;;;;1.27;1.17;;;22.60;61.60;;;;;;6156547;28;89060;-59
2022/01/28 11:29:30;;;;;;;1.25;1.15;;;22.60;61.60;;;;;;6144361;28;89187;-59
2022/01/28 11:32:32;;;;;;;1.10;1.00;;;22.70;61.60;;;;;;6158718;28;89409;-59
2022/01/28 11:35:37;;;;;;;1.20;1.10;;;22.70;61.70;;;;;;6146695;28;90429;-59
2022/01/28 11:38:45;;;;;;;1.15;1.05;;;22.70;61.60;;;;;;6143726;28;88422;-59
2022/01/28 11:42:02;;;;;;;1.23;1.13;;;22.70;61.60;;;;;;6135675;28;89098;-59
2022/01/28 11:45:06;;;;;;;1.10;1.00;;;22.70;61.60;;;;;;6147377;28;89164;-58
2022/01/28 11:48:08;;;;;;;1.10;1.00;;;22.70;62.50;;;;;;6154129;28;90065;-59
2022/01/28 11:51:16;;;;;;;1.23;0.90;;;22.70;61.70;;;;;;6156157;28;89114;-59
2022/01/28 11:54:21;;;;;;;1.20;1.10;;;22.70;61.70;;;;;;6155766;28;88006;-59
2022/01/28 11:57:27;;;;;;;1.15;1.05;;;22.70;61.70;;;;;;6157880;28;87999;-58
2022/01/28 12:00:32;;;;;;;1.30;0.93;;;22.70;61.70;;;;;;6152070;28;89084;-59
2022/01/28 12:03:34;;;;;;;1.27;1.00;;;22.70;61.70;;;;;;6145820;28;89146;-59
2022/01/28 12:06:37;;;;;;;1.00;1.00;;;22.70;61.70;;;;;;6144562;28;89128;-59
2022/01/28 12:09:39;;;;;;;1.08;0.98;;;22.70;61.70;;;;;;6147622;28;88343;-59
2022/01/28 12:12:58;;;;;;;1.33;1.10;;;22.70;61.70;;;;;;6156653;28;89057;-59
2022/01/28 12:16:11;;;;;;;1.38;1.00;;;22.70;61.80;;;;;;6157392;28;89149;-59
2022/01/28 12:19:17;;;;;;;1.00;0.90;;;22.70;61.80;;;;;;6145228;28;89982;-59
2022/01/28 12:22:19;;;;;;;1.40;1.10;;;22.70;61.80;;;;;;6158096;28;88941;-59
2022/01/28 12:25:52;;;;;;;1.08;0.98;;;22.70;61.70;;;;;;6149346;28;89062;-59
2022/01/28 12:29:02;;;;;;;1.10;0.80;;;22.70;61.60;;;;;;6146231;28;89177;-59
2022/01/28 12:32:05;;;;;;;1.02;0.93;;;22.70;61.60;;;;;;6145731;28;87968;-59
2022/01/28 12:35:09;;;;;;;1.00;0.90;;;22.70;61.60;;;;;;6156449;28;89068;-59
2022/01/28 12:38:13;;;;;;;1.20;1.00;;;22.70;61.60;;;;;;6156745;28;87902;-59
2022/01/28 12:41:18;;;;;;;1.23;0.98;;;22.70;61.60;;;;;;6150852;28;88452;-58
2022/01/28 12:44:21;;;;;;;1.08;0.90;;;22.80;61.60;;;;;;6150581;28;88979;-59
2022/01/28 12:47:25;;;;;;;1.08;0.98;;;22.70;61.60;;;;;;6144203;28;89059;-59
2022/01/28 12:50:28;;;;;;;1.00;0.90;;;22.80;61.60;;;;;;6156456;28;90197;-59
2022/01/28 12:53:34;;;;;;;1.10;1.00;;;22.80;61.50;;;;;;6154403;28;89087;-61
2022/01/28 12:56:40;;;;;;;1.13;1.00;;;22.80;61.60;;;;;;6146582;28;89226;-59
2022/01/28 12:59:46;;;;;;;1.02;0.90;;;22.80;61.50;;;;;;6161618;28;89258;-59
2022/01/28 13:02:51;;;;;;;1.40;0.93;;;22.80;61.50;;;;;;6149770;28;89197;-59
2022/01/28 13:05:57;;;;;;;0.98;0.90;;;22.80;61.50;;;;;;6159769;28;89104;-59
2022/01/28 13:09:00;;;;;;;1.25;1.00;;;22.90;61.50;;;;;;6153545;28;89874;-59
2022/01/28 13:12:03;;;;;;;1.10;1.00;;;22.80;61.30;;;;;;6161534;28;88298;-59
2022/01/28 13:15:09;;;;;;;1.05;0.93;;;22.90;61.50;;;;;;6159009;28;89066;-59
2022/01/28 13:18:11;;;;;;;1.33;1.00;;;22.80;61.30;;;;;;6159963;28;88793;-59
2022/01/28 13:21:13;;;;;;;1.10;1.00;;;22.80;61.30;;;;;;6158656;28;89184;-59
2022/01/28 13:24:17;;;;;;;1.02;0.90;;;22.90;61.30;;;;;;6162165;28;89080;-58
2022/01/28 13:27:20;;;;;;;1.30;1.00;;;22.80;61.20;;;;;;6159432;28;89068;-59
2022/01/28 13:30:24;;;;;;;1.10;0.80;;;22.80;61.10;;;;;;6152128;28;89134;-59
2022/01/28 13:33:29;;;;;;;1.00;0.90;;;22.80;61.20;;;;;;6155683;28;88045;-59
2022/01/28 13:36:45;;;;;;;1.02;0.90;;;22.90;61.20;;;;;;6158797;28;89336;-61
2022/01/28 13:39:47;;;;;;;1.05;0.93;;;22.90;61.10;;;;;;6146199;28;89166;-59
2022/01/28 13:42:59;;;;;;;1.27;1.10;;;22.90;61.10;;;;;;6148126;28;88315;-59
2022/01/28 13:46:13;;;;;;;1.40;1.00;;;22.90;61.10;;;;;;6160229;28;89054;-59
2022/01/28 13:49:16;;;;;;;1.40;0.98;;;22.90;61.10;;;;;;6158089;28;90303;-59
2022/01/28 13:52:24;;;;;;;0.80;0.80;;;22.90;61.10;;;;;;6150541;28;89100;-59
2022/01/28 13:55:33;;;;;;;1.10;1.00;;;22.90;61.00;;;;;;6158046;28;89133;-59
2022/01/28 13:58:52;;;;;;;1.15;1.02;;;22.90;61.10;;;;;;6147037;28;90268;-59
2022/01/28 14:01:58;;;;;;;1.20;1.00;;;22.90;61.10;;;;;;6152692;28;88354;-61
2022/01/28 14:05:00;;;;;;;1.48;1.02;;;22.90;61.30;;;;;;6154424;28;89304;-59
2022/01/28 14:08:02;;;;;;;1.38;1.10;;;22.90;61.30;;;;;;6153959;28;89795;-59
2022/01/28 14:11:23;;;;;;;1.77;0.90;;;22.90;61.30;;;;;;6143580;28;89322;-60
2022/01/28 14:14:26;;;;;;;1.90;1.00;;;22.90;61.20;;;;;;6154426;28;88881;-59
2022/01/28 14:17:30;;;;;;;1.20;1.00;;;23.00;61.30;;;;;;6154563;28;89109;-59
2022/01/28 14:20:32;;;;;;;1.25;0.98;;;22.90;61.20;;;;;;6155595;28;89111;-59
2022/01/28 14:23:43;;;;;;;1.48;1.00;;;22.90;61.30;;;;;;6154536;28;89944;-60
2022/01/28 14:26:55;;;;;;;1.13;1.00;;;22.90;61.30;;;;;;6134854;28;89140;-59
2022/01/28 14:30:03;;;;;;;1.35;1.00;;;23.00;61.30;;;;;;6149886;28;88022;-59
2022/01/28 14:33:10;;;;;;;1.17;1.08;;;22.90;61.30;;;;;;6154602;28;89287;-59
2022/01/28 14:36:12;;;;;;;0.93;0.82;;;23.00;61.30;;;;;;6140917;28;89331;-59
2022/01/28 14:39:15;;;;;;;1.45;0.98;;;22.90;61.30;;;;;;6152635;28;89108;-59
2022/01/28 14:42:18;;;;;;;1.20;1.10;;;23.00;61.50;;;;;;6143879;28;89386;-59
2022/01/28 14:45:20;;;;;;;1.20;1.00;;;22.90;61.50;;;;;;6144102;28;88395;-59
2022/01/28 14:48:25;;;;;;;1.70;1.10;;;23.00;61.50;;;;;;6142830;28;89062;-59
2022/01/28 14:51:29;;;;;;;1.40;1.00;;;23.00;61.40;;;;;;6152058;28;89405;-59
2022/01/28 14:54:31;;;;;;;1.30;0.90;;;23.00;61.30;;;;;;6155888;28;89022;-60
2022/01/28 14:57:32;;;;;;;1.20;1.08;;;23.00;61.20;;;;;;6154554;28;89141;-59
2022/01/28 15:00:34;;;;;;;2.03;1.02;;;23.00;61.30;;;;;;6155578;28;89148;-59
2022/01/28 15:03:38;;;;;;;1.70;1.10;;;23.00;61.10;;;;;;6153658;28;89493;-59
2022/01/28 15:06:41;;;;;;;2.30;1.20;;;23.00;61.10;;;;;;6154066;28;89258;-59
2022/01/28 15:09:44;;;;;;;1.80;1.20;;;23.00;61.20;;;;;;6146396;28;89234;-59
2022/01/28 15:12:46;;;;;;;2.05;1.15;;;23.00;61.20;;;;;;6130572;28;89056;-60
2022/01/28 15:15:48;;;;;;;3.30;1.40;;;23.00;61.10;;;;;;6132878;28;88634;-59
2022/01/28 15:18:52;;;;;;;1.20;1.00;;;23.00;61.10;;;;;;6138673;28;89558;-60
2022/01/28 15:21:54;;;;;;;2.08;1.30;;;23.00;61.10;;;;;;6132348;28;89036;-59
2022/01/28 15:24:56;;;;;;;2.05;1.20;;;23.00;61.10;;;;;;6125095;28;89792;-59
2022/01/28 15:27:59;;;;;;;3.47;1.13;;;23.00;61.10;;;;;;6140801;28;89302;-59
2022/01/28 15:34:41;;;;;;;3.13;1.20;;;23.00;61.00;;;;;;6149750;28;87388;-59
2022/01/28 15:37:43;;;;;;;1.90;1.27;;;23.00;61.30;;;;;;6150455;28;89095;-59
2022/01/28 15:40:45;;;;;;;1.95;1.10;;;23.00;61.30;;;;;;6132489;28;88046;-60
2022/01/28 15:43:47;;;;;;;2.85;1.17;;;23.00;61.10;;;;;;6153121;28;89052;-59
2022/01/28 15:46:53;;;;;;;2.47;1.40;;;23.00;61.10;;;;;;6150357;28;88374;-59
2022/01/28 15:49:56;;;;;;;2.80;1.20;;;23.00;61.10;;;;;;6140872;28;89095;-60
2022/01/28 15:52:58;;;;;;;4.18;1.40;;;23.00;61.00;;;;;;6150106;28;89076;-59
2022/01/28 15:56:01;;;;;;;2.80;1.20;;;23.00;60.90;;;;;;6149773;28;88931;-59
2022/01/28 15:59:03;;;;;;;2.45;1.23;;;23.00;60.90;;;;;;6152877;28;89097;-59
2022/01/28 16:02:05;;;;;;;2.10;1.20;;;23.00;60.80;;;;;;6150530;28;89297;-59
2022/01/28 16:05:09;;;;;;;1.58;1.00;;;23.00;60.80;;;;;;6139148;28;89111;-59
2022/01/28 16:08:11;;;;;;;2.10;1.08;;;23.00;60.70;;;;;;6148876;28;89075;-59
2022/01/28 16:11:17;;;;;;;2.28;1.20;;;23.00;60.80;;;;;;6155125;28;89181;-59
2022/01/28 16:14:26;;;;;;;2.92;1.20;;;23.00;60.80;;;;;;6156670;28;89023;-58
2022/01/28 16:17:37;;;;;;;2.50;1.10;;;23.00;60.80;;;;;;6156519;28;88502;-59
2022/01/28 16:20:41;;;;;;;1.65;1.00;;;23.00;60.80;;;;;;6146846;28;88936;-62
2022/01/28 16:23:43;;;;;;;2.17;1.20;;;23.00;60.80;;;;;;6157797;28;89149;-58
2022/01/28 16:26:45;;;;;;;3.13;1.20;;;23.10;60.90;;;;;;6137024;28;90040;-59
2022/01/28 16:29:47;;;;;;;1.77;1.10;;;23.10;60.90;;;;;;6151900;28;89062;-59
2022/01/28 16:32:49;;;;;;;1.50;1.13;;;23.00;60.80;;;;;;6154883;28;87423;-59
2022/01/28 16:35:53;;;;;;;2.75;1.10;;;23.10;60.90;;;;;;6153285;28;89014;-58
2022/01/28 16:38:55;;;;;;;2.17;1.20;;;23.10;60.80;;;;;;6148443;28;88979;-59
2022/01/28 16:42:02;;;;;;;2.92;1.10;;;23.00;60.80;;;;;;6150531;28;89126;-58
2022/01/28 16:45:04;;;;;;;2.85;1.30;;;23.00;60.80;;;;;;6149964;28;89496;-58
2022/01/28 16:48:06;;;;;;;1.90;1.20;;;23.00;60.80;;;;;;6158997;28;87671;-59
2022/01/28 16:51:10;;;;;;;1.85;1.10;;;23.00;60.80;;;;;;6152382;28;88976;-59
2022/01/28 16:54:12;;;;;;;1.67;0.98;;;23.00;60.80;;;;;;6161038;28;89199;-59